Terminal Aerodrome Forecast
Issued by NWS

Home | Current Version | Previous Version | Text Only | Print | Product List | Glossary On
Versions: 1 2 3 4 5 6 7 8 9 10 11 12 13 14 15
000
FTUS46 KLOX 301155
TAFLGB
TAF
KLGB 301155Z 3012/3112 VRB03KT 4SM BR OVC003
     FM301600 VRB03KT 6SM BR OVC007
     FM301800 18008KT P6SM SKC
     FM310100 29008KT P6SM SKC
     FM310500 VRB03KT P6SM SKC
     FM310700 VRB03KT 5SM BR OVC007=

USA.gov is the U.S. government's official web portal to all federal, state and local government web resources and services.